Stonewall, Texas
Current Conditions -  °F | °C
As of 6:55 PM on Monday 26 Jan 2015 (Local Time) from KT82 Reporting Station
Clear Clear  
Wind Chill: 53°   Ceiling: Unl
Heat Index: 53°   Visibility: 10mi
Dew Point: 37°   Wind: 3mph
Humidity: 56%   Direction: 350°N
Pressure: 30.2"   Gusts: NA
Location:  30.24°N, 98.67°W
Report Text: KT82 270055Z AUTO 35003KT 10SM CLR 11/03 A3020 RMK AO2 T01140029
Loading
Personal Weather Stations






























Interactive Weather Map New forecast layout! Learn more

10-Day Weather Forecast

Advertisements
Track Severe Weather on mobile